地図

経路データ

SID SEASON NUMBER BASIN SUBBASIN NAME ISO_TIME NATURE LAT LON WMO_WIND WMO_PRES WMO_AGENCY TRACK_TYPE DIST2LAND LANDFALL IFLAG USA_AGENCY USA_ATCF_ID USA_LAT USA_LON USA_RECORD USA_STATUS USA_WIND USA_PRES USA_SSHS USA_R34_NE USA_R34_SE USA_R34_SW USA_R34_NW USA_R50_NE USA_R50_SE USA_R50_SW USA_R50_NW USA_R64_NE USA_R64_SE USA_R64_SW USA_R64_NW USA_POCI USA_ROCI USA_RMW USA_EYE TOKYO_LAT TOKYO_LON TOKYO_GRADE TOKYO_WIND TOKYO_PRES TOKYO_R50_DIR TOKYO_R50_LONG TOKYO_R50_SHORT TOKYO_R30_DIR TOKYO_R30_LONG TOKYO_R30_SHORT TOKYO_LAND CMA_LAT CMA_LON CMA_CAT CMA_WIND CMA_PRES HKO_LAT HKO_LON HKO_CAT HKO_WIND HKO_PRES NEWDELHI_LAT NEWDELHI_LON NEWDELHI_GRADE NEWDELHI_WIND NEWDELHI_PRES NEWDELHI_CI NEWDELHI_DP NEWDELHI_POCI REUNION_LAT REUNION_LON REUNION_TYPE REUNION_WIND REUNION_PRES REUNION_TNUM REUNION_CI REUNION_RMW REUNION_R34_NE REUNION_R34_SE REUNION_R34_SW REUNION_R34_NW REUNION_R50_NE REUNION_R50_SE REUNION_R50_SW REUNION_R50_NW REUNION_R64_NE REUNION_R64_SE REUNION_R64_SW REUNION_R64_NW BOM_LAT BOM_LON BOM_TYPE BOM_WIND BOM_PRES BOM_TNUM BOM_CI BOM_RMW BOM_R34_NE BOM_R34_SE BOM_R34_SW BOM_R34_NW BOM_R50_NE BOM_R50_SE BOM_R50_SW BOM_R50_NW BOM_R64_NE BOM_R64_SE BOM_R64_SW BOM_R64_NW BOM_ROCI BOM_POCI BOM_EYE BOM_POS_METHOD BOM_PRES_METHOD NADI_LAT NADI_LON NADI_CAT NADI_WIND NADI_PRES WELLINGTON_LAT WELLINGTON_LON WELLINGTON_WIND WELLINGTON_PRES DS824_LAT DS824_LON DS824_STAGE DS824_WIND DS824_PRES TD9636_LAT TD9636_LON TD9636_STAGE TD9636_WIND TD9636_PRES TD9635_LAT TD9635_LON TD9635_WIND TD9635_PRES TD9635_ROCI NEUMANN_LAT NEUMANN_LON NEUMANN_CLASS NEUMANN_WIND NEUMANN_PRES MLC_LAT MLC_LON MLC_CLASS MLC_WIND MLC_PRES USA_GUST BOM_GUST BOM_GUST_PER REUNION_GUST REUNION_GUST_PER USA_SEAHGT USA_SEARAD_NE USA_SEARAD_SE USA_SEARAD_SW USA_SEARAD_NW STORM_SPEED STORM_DIR
2000309N10270 2000 104 EP MM ROSA 2000-11-03 18:00:00 TS 10.3000 -89.8000 25 1005 hurdat_epa main 342 335 O_____________ hurdat_epa EP192000 10.3000 -89.8000 TD 25 1005 -1 9 291
2000309N10270 2000 104 EP MM ROSA 2000-11-03 21:00:00 TS 10.4650 -90.2274 main 338 333 P_____________ EP192000 10.4650 -90.2274 TD 27 1003 -1 9 289
2000309N10270 2000 104 EP MM ROSA 2000-11-04 00:00:00 TS 10.6000 -90.7000 30 1002 hurdat_epa main 339 339 O_____________ hurdat_epa EP192000 10.6000 -90.7000 TD 30 1002 -1 10 282
2000309N10270 2000 104 EP MM ROSA 2000-11-04 03:00:00 TS 10.6800 -91.2425 main 348 348 P_____________ EP192000 10.6800 -91.2425 TD 30 1002 -1 11 275
2000309N10270 2000 104 EP MM ROSA 2000-11-04 06:00:00 TS 10.7000 -91.8000 30 1002 hurdat_epa main 362 362 O_____________ hurdat_epa EP192000 10.7000 -91.8000 TD 30 1002 -1 10 270
2000309N10270 2000 104 EP MM ROSA 2000-11-04 09:00:00 TS 10.6722 -92.2775 main 374 374 P_____________ EP192000 10.6722 -92.2775 TD 30 1002 -1 10 264
2000309N10270 2000 104 EP MM ROSA 2000-11-04 12:00:00 TS 10.6000 -92.8000 30 1003 hurdat_epa main 403 403 O_____________ hurdat_epa EP192000 10.6000 -92.8000 TD 30 1003 -1 12 262
2000309N10270 2000 104 EP MM ROSA 2000-11-04 15:00:00 TS 10.4927 -93.5001 main 449 449 P_____________ EP192000 10.4927 -93.5001 TD 30 1003 -1 14 262
2000309N10270 2000 104 EP MM ROSA 2000-11-04 18:00:00 TS 10.4000 -94.2000 30 1003 hurdat_epa main 499 499 O_____________ hurdat_epa EP192000 10.4000 -94.2000 TD 30 1003 -1 12 265
2000309N10270 2000 104 EP MM ROSA 2000-11-04 21:00:00 TS 10.3773 -94.7374 main 529 529 P_____________ EP192000 10.3773 -94.7374 TD 30 1003 -1 10 270
2000309N10270 2000 104 EP MM ROSA 2000-11-05 00:00:00 TS 10.4000 -95.2000 30 1003 hurdat_epa main 563 563 O_____________ hurdat_epa EP192000 10.4000 -95.2000 TD 30 1003 -1 9 273
2000309N10270 2000 104 EP MM ROSA 2000-11-05 03:00:00 TS 10.4274 -95.6576 main 590 573 P_____________ EP192000 10.4274 -95.6575 TD 30 1003 -1 9 276
2000309N10270 2000 104 EP MM ROSA 2000-11-05 06:00:00 TS 10.5000 -96.1000 30 1003 hurdat_epa main 573 559 O_____________ hurdat_epa EP192000 10.5000 -96.1000 TD 30 1003 -1 9 284
2000309N10270 2000 104 EP MM ROSA 2000-11-05 09:00:00 TS 10.6424 -96.5499 main 559 537 P_____________ EP192000 10.6424 -96.5499 TD 32 1002 -1 9 289
2000309N10270 2000 104 EP MM ROSA 2000-11-05 12:00:00 TS 10.8000 -97.0000 35 1002 hurdat_epa main 539 530 O_____________ hurdat_epa EP192000 10.8000 -97.0000 TS 35 1002 0 9 285
2000309N10270 2000 104 EP MM ROSA 2000-11-05 15:00:00 TS 10.8925 -97.4726 main 535 528 P_____________ EP192000 10.8925 -97.4726 TS 37 1001 0 9 283
2000309N10270 2000 104 EP MM ROSA 2000-11-05 18:00:00 TS 11.0000 -97.9000 40 1001 hurdat_epa main 533 522 O_____________ hurdat_epa EP192000 11.0000 -97.9000 TS 40 1001 0 8 291
2000309N10270 2000 104 EP MM ROSA 2000-11-05 21:00:00 TS 11.1849 -98.2450 main 522 513 P_____________ EP192000 11.1849 -98.2450 TS 45 999 0 7 304
2000309N10270 2000 104 EP MM ROSA 2000-11-06 00:00:00 TS 11.4000 -98.5000 50 997 hurdat_epa main 513 502 O_____________ hurdat_epa EP192000 11.4000 -98.5000 TS 50 997 0 6 313
2000309N10270 2000 104 EP MM ROSA 2000-11-06 03:00:00 TS 11.5925 -98.6950 main 502 482 P_____________ EP192000 11.5925 -98.6950 TS 52 995 0 5 324
2000309N10270 2000 104 EP MM ROSA 2000-11-06 06:00:00 TS 11.8000 -98.8000 55 994 hurdat_epa main 482 460 O_____________ hurdat_epa EP192000 11.8000 -98.8000 TS 55 994 0 5 344
2000309N10270 2000 104 EP MM ROSA 2000-11-06 09:00:00 TS 12.0500 -98.8300 main 460 428 P_____________ EP192000 12.0500 -98.8300 TS 55 994 0 5 2
2000309N10270 2000 104 EP MM ROSA 2000-11-06 12:00:00 TS 12.3000 -98.8000 55 994 hurdat_epa main 428 406 O_____________ hurdat_epa EP192000 12.3000 -98.8000 TS 55 994 0 5 10
2000309N10270 2000 104 EP MM ROSA 2000-11-06 15:00:00 TS 12.5000 -98.7500 main 406 381 P_____________ EP192000 12.5000 -98.7500 TS 55 993 0 4 13
2000309N10270 2000 104 EP MM ROSA 2000-11-06 18:00:00 TS 12.7000 -98.7000 55 993 hurdat_epa main 381 360 O_____________ hurdat_epa EP192000 12.7000 -98.7000 TS 55 993 0 5 0
2000309N10270 2000 104 EP MM ROSA 2000-11-06 21:00:00 TS 12.9500 -98.7299 main 360 328 P_____________ EP192000 12.9500 -98.7299 TS 55 994 0 5 2
2000309N10270 2000 104 EP MM ROSA 2000-11-07 00:00:00 TS 13.2000 -98.7000 55 995 hurdat_epa main 328 300 O_____________ hurdat_epa EP192000 13.2000 -98.7000 TS 55 995 0 5 27
2000309N10270 2000 104 EP MM ROSA 2000-11-07 03:00:00 TS 13.4075 -98.4875 main 300 272 P_____________ EP192000 13.4075 -98.4875 TS 52 996 0 6 51
2000309N10270 2000 104 EP MM ROSA 2000-11-07 06:00:00 TS 13.6000 -98.2000 50 997 hurdat_epa main 272 247 O_____________ hurdat_epa EP192000 13.6000 -98.2000 TS 50 997 0 7 54
2000309N10270 2000 104 EP MM ROSA 2000-11-07 09:00:00 TS 13.7925 -97.9425 main 243 213 P_____________ EP192000 13.7925 -97.9425 TS 50 997 0 6 51
2000309N10270 2000 104 EP MM ROSA 2000-11-07 12:00:00 TS 14.0000 -97.7000 50 998 hurdat_epa main 213 183 O_____________ hurdat_epa EP192000 14.0000 -97.7000 TS 50 998 0 6 45
2000309N10270 2000 104 EP MM ROSA 2000-11-07 15:00:00 TS 14.2425 -97.4850 main 183 144 P_____________ EP192000 14.2425 -97.4850 TS 50 999 0 6 38
2000309N10270 2000 104 EP MM ROSA 2000-11-07 18:00:00 TS 14.5000 -97.3000 50 1000 hurdat_epa main 144 119 O_____________ hurdat_epa EP192000 14.5000 -97.3000 TS 50 1000 0 6 32
2000309N10270 2000 104 EP MM ROSA 2000-11-07 21:00:00 TS 14.7499 -97.1574 main 119 79 P_____________ EP192000 14.7499 -97.1574 TS 47 1000 0 6 30
2000309N10270 2000 104 EP MM ROSA 2000-11-08 00:00:00 TS 15.0000 -97.0000 45 1001 hurdat_epa main 79 49 O_____________ hurdat_epa EP192000 15.0000 -97.0000 TS 45 1001 0 5 37
2000309N10270 2000 104 EP MM ROSA 2000-11-08 03:00:00 TS 15.1794 -96.8282 main 49 15 P_____________ EP192000 15.1553 -96.8561 TS 42 1001 0 7 44
2000309N10270 2000 104 EP MM ROSA 2000-11-08 06:00:00 TS 15.5000 -96.5000 40 1002 hurdat_epa main 15 0 O_____________ hurdat_epa EP192000 15.5000 -96.5000 TS 40 1002 0 10 44
2000309N10270 2000 104 EP MM ROSA 2000-11-08 07:00:00 TS 15.6710 -96.3345 35 1002 hurdat_epa main 0 0 O_____________ hurdat_epa EP192000 15.7000 -96.3000 L TS 35 1002 0 12 40
2000309N10270 2000 104 EP MM ROSA 2000-11-08 09:00:00 TS 15.9640 -96.0928 main 0 0 P_____________ EP192000 16.0109 -96.0365 TS 31 1002 -1 9 34
2000309N10270 2000 104 EP MM ROSA 2000-11-08 12:00:00 TS 16.3000 -95.9000 25 1003 hurdat_epa main 0 O_____________ hurdat_epa EP192000 16.3000 -95.9000 TD 25 1003 -1 8 29

IBTrACS Databaseについて

本データベースは、米国NOAAが公開する1842年以降の世界の熱帯低気圧のベストトラックデータアーカイブInternational Best Track Archive for Climate Stewardship (IBTrACS)を、ウェブで閲覧しやすい形式に変換したものです。

最終更新日:2021-12-08